createdAt,value
2023-03-23T15:59:26.156Z,99511.80
2023-03-23T16:02:00.893Z,99508.20
2023-03-23T16:04:35.334Z,99512.80
2023-03-23T16:07:14.187Z,99518.00
2023-03-23T16:09:48.396Z,99525.40
2023-03-23T16:12:23.210Z,99515.80
2023-03-23T16:14:57.645Z,99508.80
2023-03-23T16:17:33.433Z,99516.40
2023-03-23T16:20:14.881Z,99522.60
2023-03-23T16:22:50.137Z,99521.60
2023-03-23T16:25:24.736Z,99521.40
2023-03-23T16:27:59.045Z,99528.80
2023-03-23T16:30:38.055Z,99533.80
2023-03-23T16:33:12.587Z,99535.20
2023-03-23T16:35:47.108Z,99544.80
2023-03-23T16:38:21.829Z,99536.60
2023-03-23T16:40:56.396Z,99538.40
2023-03-23T16:43:30.663Z,99537.40
2023-03-23T16:46:04.868Z,99537.40
2023-03-23T16:48:40.713Z,99539.40
2023-03-23T16:51:15.188Z,99548.80
2023-03-23T16:53:49.922Z,99553.00
2023-03-23T16:56:24.268Z,99546.80
2023-03-23T16:58:58.473Z,99551.80
2023-03-23T17:01:32.750Z,99550.80
2023-03-23T17:04:07.561Z,99552.20
2023-03-23T17:06:43.115Z,99561.00
2023-03-23T17:09:17.678Z,99572.00
2023-03-23T17:20:43.981Z,99579.40
2023-03-23T17:23:14.578Z,99582.20
2023-03-23T17:25:47.462Z,99579.20
2023-03-23T17:28:19.562Z,99579.20
2023-03-23T17:30:53.047Z,99579.00
2023-03-23T17:33:23.117Z,99581.60
2023-03-23T17:35:54.332Z,99583.20
2023-03-23T17:38:24.510Z,99577.80
2023-03-23T17:40:59.647Z,99578.00
2023-03-23T17:43:31.045Z,99579.40
2023-03-23T17:46:01.687Z,99583.20
2023-03-23T17:48:31.884Z,99581.00
2023-03-23T17:51:02.459Z,99586.40
2023-03-23T17:53:35.045Z,99591.80
2023-03-23T17:56:07.855Z,99590.60
2023-03-23T17:58:38.277Z,99587.20
2023-03-23T18:01:09.244Z,99594.00
2023-03-23T18:03:39.746Z,99594.00
2023-03-23T18:06:11.292Z,99600.60
2023-03-23T18:08:41.998Z,99604.40
2023-03-23T18:11:12.375Z,99604.20
2023-03-23T18:13:42.634Z,99611.60
2023-03-23T18:16:13.326Z,99624.40
2023-03-23T18:18:43.843Z,99629.40
2023-03-23T18:21:14.236Z,99619.40
2023-03-23T18:25:05.921Z,99602.60
2023-03-23T18:27:40.632Z,99599.00
2023-03-23T18:30:16.184Z,99605.00
2023-03-23T18:32:51.319Z,99608.00
2023-03-23T18:35:26.332Z,99610.40
2023-03-23T18:38:00.925Z,99615.60
2023-03-23T18:40:35.391Z,99614.20
2023-03-23T18:43:10.181Z,99614.80
2023-03-23T18:45:49.808Z,99627.20
2023-03-23T18:48:25.324Z,99628.00
2023-03-23T18:51:01.970Z,99623.00
2023-03-23T18:53:36.617Z,99618.40
2023-03-23T18:56:15.964Z,99630.40
2023-03-23T18:58:52.751Z,99631.80
2023-03-23T19:01:27.188Z,99635.20
2023-03-23T19:04:06.882Z,99635.40
2023-03-23T19:06:42.463Z,99638.60
2023-03-23T19:09:17.073Z,99634.20
2023-03-23T19:11:51.502Z,99633.20
2023-03-23T19:14:26.000Z,99630.80
2023-03-23T19:17:00.466Z,99627.40
2023-03-23T19:19:35.482Z,99622.20
2023-03-23T19:22:09.742Z,99618.20
2023-03-23T19:24:44.133Z,99621.00
2023-03-23T19:27:19.011Z,99616.00
2023-03-23T19:29:53.346Z,99622.60
2023-03-23T19:32:27.719Z,99628.80
2023-03-23T19:35:03.942Z,99634.20
2023-03-23T19:37:39.730Z,99628.00
2023-03-23T19:40:35.516Z,99629.40
2023-03-23T19:43:10.813Z,99633.20
2023-03-23T19:45:45.828Z,99634.00
2023-03-23T19:48:20.800Z,99629.40
2023-03-23T19:50:56.438Z,99630.40
2023-03-23T19:53:30.855Z,99628.60
2023-03-23T19:56:06.362Z,99625.40
2023-03-23T19:58:40.792Z,99626.40
2023-03-23T20:01:15.996Z,99622.80
2023-03-23T20:03:50.875Z,99629.00
2023-03-23T20:06:25.191Z,99638.60
2023-03-23T20:09:00.733Z,99642.80
2023-03-23T20:11:36.083Z,99645.80
2023-03-23T20:14:11.163Z,99651.80
2023-03-23T20:16:45.887Z,99655.60
2023-03-23T20:19:21.375Z,99658.20
2023-03-23T20:21:56.419Z,99661.60
2023-03-23T20:24:30.969Z,99664.00
2023-03-23T20:27:05.337Z,99667.60
2023-03-23T20:29:39.620Z,99666.20
2023-03-23T20:32:14.228Z,99664.00
2023-03-23T20:34:49.798Z,99672.60
2023-03-23T20:37:24.656Z,99672.40
2023-03-23T20:39:59.238Z,99671.00
2023-03-23T20:42:33.601Z,99675.40
2023-03-23T20:45:09.868Z,99676.60
2023-03-23T20:47:45.381Z,99672.00
2023-03-23T20:50:20.387Z,99666.60
2023-03-23T20:52:57.510Z,99667.60
2023-03-23T20:55:33.247Z,99657.20
2023-03-23T20:58:08.091Z,99659.60
2023-03-23T21:00:44.273Z,99661.00
2023-03-23T21:03:19.519Z,99667.80
2023-03-23T21:05:53.713Z,99663.00
2023-03-23T21:08:29.232Z,99660.20
2023-03-23T21:11:04.000Z,99656.80
2023-03-23T21:13:38.551Z,99665.00
2023-03-23T21:16:13.244Z,99659.20
2023-03-23T21:18:48.695Z,99659.20
2023-03-23T21:21:24.124Z,99663.60
2023-03-23T21:23:59.050Z,99665.80
2023-03-23T21:26:35.922Z,99678.80
2023-03-23T21:29:12.070Z,99681.20
2023-03-23T21:31:50.134Z,99690.20
2023-03-23T21:34:27.577Z,99694.40
2023-03-23T21:37:01.971Z,99695.80
2023-03-23T21:39:36.174Z,99695.20
2023-03-23T21:42:13.711Z,99694.20
2023-03-23T21:44:48.911Z,99695.60
2023-03-23T21:47:23.615Z,99693.60
2023-03-23T21:49:57.907Z,99685.40
2023-03-23T21:52:33.567Z,99685.40
2023-03-23T21:55:09.724Z,99687.80
2023-03-23T21:57:44.192Z,99685.40
2023-03-23T22:00:19.771Z,99688.20
2023-03-23T22:02:54.677Z,99685.40
2023-03-23T22:05:30.651Z,99681.80
2023-03-23T22:08:07.113Z,99680.40
2023-03-23T22:11:00.368Z,99681.60
2023-03-23T22:22:18.284Z,99680.20
2023-03-23T22:24:52.933Z,99678.20
2023-03-23T22:27:27.422Z,99679.80
2023-03-23T22:30:02.047Z,99683.00
2023-03-23T22:32:36.524Z,99678.20
2023-03-23T22:35:12.714Z,99675.20
2023-03-23T22:37:46.958Z,99678.20
2023-03-23T22:40:24.098Z,99679.80
2023-03-23T22:42:58.441Z,99681.20
2023-03-23T22:45:32.790Z,99680.60
2023-03-23T22:48:08.292Z,99679.40
2023-03-23T22:50:43.160Z,99676.80
2023-03-23T22:53:18.622Z,99679.60
2023-03-23T22:55:58.712Z,99680.80
2023-03-23T22:58:35.916Z,99677.80
2023-03-23T23:01:15.272Z,99678.60
2023-03-23T23:03:50.922Z,99676.40
2023-03-23T23:06:26.011Z,99676.40
2023-03-23T23:09:00.217Z,99678.20
2023-03-23T23:11:35.085Z,99672.20
2023-03-23T23:14:09.462Z,99678.60
2023-03-23T23:16:44.677Z,99677.20
2023-03-23T23:19:19.353Z,99670.00
2023-03-23T23:21:55.229Z,99673.60
2023-03-23T23:24:30.580Z,99672.80
2023-03-23T23:27:04.990Z,99670.40
2023-03-23T23:29:40.666Z,99671.20
2023-03-23T23:32:14.964Z,99665.40
2023-03-23T23:34:49.796Z,99667.20
2023-03-23T23:37:24.198Z,99659.80
2023-03-23T23:39:58.671Z,99664.20
2023-03-23T23:42:32.838Z,99666.60
2023-03-23T23:45:10.351Z,99667.40
2023-03-23T23:47:45.833Z,99661.80
2023-03-23T23:50:20.390Z,99659.40
2023-03-23T23:52:55.123Z,99657.00
2023-03-23T23:55:30.591Z,99653.20
2023-03-23T23:58:06.195Z,99650.40
